Time;durP1;ratioP1;P1;durP2;ratioP2;P2;SDS_P1;SDS_P2;PMS_P1;PMS_P2;Temp;Humidity;BMP_temperature;BMP_pressure;BME280_temperature;BME280_humidity;BME280_pressure;Samples;Min_cycle;Max_cycle;Signal;HPM_P1;HPM_P2
2020/12/28 00:00:18;;;;;;;1.00;0.70;;;8.80;99.90;;;;;;5015297;28;20200;-82
2020/12/28 00:02:44;;;;;;;1.00;0.77;;;8.70;99.90;;;;;;5015156;28;20192;-82
2020/12/28 00:05:13;;;;;;;1.02;0.75;;;8.70;99.90;;;;;;5015105;28;20211;-82
2020/12/28 00:07:40;;;;;;;1.40;0.93;;;8.60;99.90;;;;;;5015180;28;20264;-83
2020/12/28 00:10:09;;;;;;;1.23;0.90;;;8.60;99.90;;;;;;5014866;28;20250;-82
2020/12/28 00:12:47;;;;;;;1.00;0.77;;;8.60;99.90;;;;;;5015038;28;20651;-82
2020/12/28 00:15:15;;;;;;;1.00;0.80;;;8.60;99.90;;;;;;5015194;28;20196;-82
2020/12/28 00:17:44;;;;;;;1.55;0.80;;;8.60;99.90;;;;;;5014894;28;20235;-83
2020/12/28 00:20:10;;;;;;;2.40;0.90;;;8.70;99.90;;;;;;5014845;28;20200;-82
2020/12/28 00:22:37;;;;;;;1.20;0.90;;;8.60;99.90;;;;;;5014861;28;20670;-82
2020/12/28 00:25:03;;;;;;;1.20;0.80;;;8.70;99.90;;;;;;5014824;28;20647;-83
2020/12/28 00:27:29;;;;;;;1.13;0.90;;;8.70;99.90;;;;;;5014719;28;20195;-82
2020/12/28 00:29:56;;;;;;;2.10;0.80;;;8.80;99.90;;;;;;5014677;28;20196;-82
2020/12/28 00:32:22;;;;;;;1.10;0.90;;;8.90;99.90;;;;;;5014509;28;20714;-82
2020/12/28 00:34:48;;;;;;;1.67;0.90;;;8.70;99.90;;;;;;5014780;28;20196;-82
2020/12/28 00:37:14;;;;;;;1.00;0.80;;;8.70;99.90;;;;;;5014547;28;20228;-82
2020/12/28 00:39:41;;;;;;;1.05;0.80;;;8.50;99.90;;;;;;5014453;28;20659;-82
2020/12/28 00:42:07;;;;;;;1.20;0.93;;;8.50;99.90;;;;;;5014453;28;20192;-81
2020/12/28 00:44:34;;;;;;;1.10;0.90;;;8.50;99.90;;;;;;5015025;28;20193;-82
2020/12/28 00:47:00;;;;;;;1.00;0.90;;;8.70;99.90;;;;;;5014563;28;20200;-82
2020/12/28 00:49:26;;;;;;;1.10;0.90;;;8.80;99.90;;;;;;5014444;28;20203;-83
2020/12/28 00:51:52;;;;;;;1.00;0.80;;;8.80;99.90;;;;;;5014552;28;20200;-82
2020/12/28 00:54:18;;;;;;;1.00;0.85;;;8.80;99.90;;;;;;5014578;28;20200;-82
2020/12/28 00:56:49;;;;;;;1.20;0.95;;;8.70;99.90;;;;;;5014046;28;20228;-82
2020/12/28 00:59:16;;;;;;;1.00;0.80;;;8.70;99.90;;;;;;5014332;28;20617;-82
2020/12/28 01:01:42;;;;;;;1.30;1.10;;;8.80;99.90;;;;;;5013915;28;20643;-82
2020/12/28 01:04:08;;;;;;;1.30;1.00;;;8.90;99.90;;;;;;5014287;28;20250;-82
2020/12/28 01:06:34;;;;;;;1.73;0.90;;;8.90;99.90;;;;;;5014139;28;20204;-82
2020/12/28 01:09:03;;;;;;;1.20;0.90;;;9.00;99.90;;;;;;5013981;28;20558;-82
2020/12/28 01:11:29;;;;;;;1.08;0.98;;;9.00;99.90;;;;;;5014152;28;20652;-82
2020/12/28 01:13:56;;;;;;;2.00;0.95;;;9.10;99.90;;;;;;5013947;28;20192;-82
2020/12/28 01:16:23;;;;;;;0.90;0.68;;;9.10;99.90;;;;;;5013966;28;20206;-82
2020/12/28 01:18:49;;;;;;;1.00;0.90;;;9.20;99.90;;;;;;5013908;28;20259;-83
2020/12/28 01:21:19;;;;;;;1.23;0.95;;;9.20;99.90;;;;;;5013807;28;20196;-81
2020/12/28 01:23:45;;;;;;;1.20;0.90;;;9.30;99.90;;;;;;5013798;28;20201;-82
2020/12/28 01:26:12;;;;;;;1.00;0.80;;;9.40;99.90;;;;;;5013518;28;20688;-82
2020/12/28 01:28:38;;;;;;;1.10;0.80;;;9.20;99.90;;;;;;5013961;28;20250;-83
2020/12/28 01:31:05;;;;;;;1.40;0.90;;;9.10;99.90;;;;;;5013752;28;20200;-82
2020/12/28 01:33:31;;;;;;;1.10;0.90;;;9.20;99.90;;;;;;5013531;28;20239;-82
2020/12/28 01:35:57;;;;;;;1.00;0.90;;;9.20;99.90;;;;;;5013633;28;20211;-82
2020/12/28 01:38:24;;;;;;;1.10;0.90;;;9.20;99.90;;;;;;5013636;28;20220;-83
2020/12/28 01:40:50;;;;;;;1.00;0.90;;;9.20;99.90;;;;;;5013228;28;20203;-82
2020/12/28 01:43:17;;;;;;;1.13;0.90;;;9.20;99.90;;;;;;5013624;28;20563;-82
2020/12/28 01:45:43;;;;;;;1.10;0.95;;;9.20;99.90;;;;;;5013529;28;20272;-82
2020/12/28 01:48:10;;;;;;;1.60;0.80;;;9.20;99.90;;;;;;5013703;28;20204;-82
2020/12/28 01:50:36;;;;;;;1.00;0.80;;;9.30;99.90;;;;;;5013474;28;20250;-82
2020/12/28 01:53:03;;;;;;;1.00;0.80;;;9.30;99.90;;;;;;5013440;28;20196;-82
2020/12/28 01:55:30;;;;;;;1.10;0.93;;;9.30;99.90;;;;;;5013399;28;20228;-82
2020/12/28 01:57:57;;;;;;;1.25;0.80;;;9.30;99.90;;;;;;5013402;28;20230;-82
2020/12/28 02:00:23;;;;;;;1.10;0.70;;;9.20;99.90;;;;;;5013481;28;20227;-82
2020/12/28 02:02:50;;;;;;;1.20;0.80;;;9.20;99.90;;;;;;5013632;28;20200;-82
2020/12/28 02:05:17;;;;;;;1.10;1.00;;;9.20;99.90;;;;;;5013417;28;20196;-82
2020/12/28 02:07:45;;;;;;;1.10;0.90;;;9.10;99.90;;;;;;5013252;28;20203;-82
2020/12/28 02:10:11;;;;;;;1.20;1.00;;;9.10;99.90;;;;;;5013322;28;20199;-82
2020/12/28 02:12:38;;;;;;;1.00;0.80;;;9.20;99.90;;;;;;5013265;28;20200;-82
2020/12/28 02:15:06;;;;;;;1.65;0.77;;;9.20;99.90;;;;;;5013429;28;20196;-82
2020/12/28 02:17:32;;;;;;;1.10;0.90;;;9.20;99.90;;;;;;5013321;28;20239;-82
2020/12/28 02:19:58;;;;;;;1.00;0.88;;;9.20;99.90;;;;;;5013026;28;20197;-82
2020/12/28 02:22:25;;;;;;;1.10;0.90;;;9.30;99.90;;;;;;5013151;28;20203;-82
2020/12/28 02:24:51;;;;;;;1.10;0.85;;;9.30;99.90;;;;;;5013164;28;20200;-83
2020/12/28 02:27:18;;;;;;;1.13;1.02;;;9.20;99.90;;;;;;5013168;28;20208;-83
2020/12/28 02:29:44;;;;;;;1.10;0.90;;;9.20;99.90;;;;;;5013200;28;20718;-82
2020/12/28 02:32:10;;;;;;;1.10;0.90;;;9.20;99.90;;;;;;5013008;28;20228;-82
2020/12/28 02:34:36;;;;;;;1.52;0.90;;;9.30;99.90;;;;;;5013005;28;20201;-82
2020/12/28 02:37:02;;;;;;;1.08;0.85;;;9.30;99.90;;;;;;5013103;28;20255;-82
2020/12/28 02:39:29;;;;;;;1.10;0.85;;;9.20;99.90;;;;;;5012976;28;20196;-81
2020/12/28 02:41:56;;;;;;;1.10;0.80;;;9.10;99.90;;;;;;5013193;28;20558;-82
2020/12/28 02:44:22;;;;;;;1.20;0.85;;;9.00;99.90;;;;;;5013107;28;20203;-81
2020/12/28 02:46:48;;;;;;;1.95;0.98;;;9.00;99.90;;;;;;5013143;28;20208;-82
2020/12/28 02:49:14;;;;;;;1.30;0.95;;;9.10;99.90;;;;;;5012987;28;20559;-84
2020/12/28 02:51:40;;;;;;;1.40;1.13;;;9.00;99.90;;;;;;5013076;28;20196;-82
2020/12/28 02:54:07;;;;;;;1.10;0.90;;;8.90;99.90;;;;;;5015314;28;20537;-82
2020/12/28 02:56:34;;;;;;;1.08;0.80;;;8.80;99.90;;;;;;5016352;28;20223;-83
2020/12/28 02:59:00;;;;;;;1.00;0.80;;;8.70;99.90;;;;;;5016672;28;20195;-83
2020/12/28 03:01:26;;;;;;;1.00;0.80;;;8.70;99.90;;;;;;5016386;28;20223;-82
2020/12/28 03:03:52;;;;;;;1.10;0.90;;;8.80;99.90;;;;;;5016365;28;20678;-82
2020/12/28 03:06:18;;;;;;;1.42;1.33;;;8.90;99.90;;;;;;5016525;28;20228;-83
2020/12/28 03:08:44;;;;;;;1.00;0.80;;;8.90;99.90;;;;;;5016641;28;20247;-82
2020/12/28 03:11:11;;;;;;;2.25;0.80;;;8.90;99.90;;;;;;5016243;28;20272;-82
2020/12/28 03:13:38;;;;;;;1.00;0.88;;;8.90;99.90;;;;;;5016222;28;20203;-82
2020/12/28 03:16:04;;;;;;;1.23;0.80;;;8.90;99.90;;;;;;5016249;28;20196;-82
2020/12/28 03:18:31;;;;;;;1.13;1.02;;;8.90;99.90;;;;;;5015973;28;20220;-82
2020/12/28 03:20:58;;;;;;;1.17;0.90;;;8.80;99.90;;;;;;5015936;28;20229;-82
2020/12/28 03:23:24;;;;;;;1.13;1.00;;;8.90;99.90;;;;;;5015967;28;20246;-82
2020/12/28 03:25:50;;;;;;;1.08;0.80;;;8.80;99.90;;;;;;5015880;28;20691;-81
2020/12/28 03:28:16;;;;;;;1.00;0.90;;;9.00;99.90;;;;;;5015925;28;20608;-82
2020/12/28 03:30:43;;;;;;;1.17;0.93;;;8.90;99.90;;;;;;5016117;28;20667;-81
2020/12/28 03:33:10;;;;;;;1.33;1.20;;;8.90;99.90;;;;;;5015602;28;20228;-82
2020/12/28 03:35:36;;;;;;;1.20;0.95;;;9.00;99.90;;;;;;5015752;28;20203;-82
2020/12/28 03:38:02;;;;;;;1.25;0.90;;;9.00;99.90;;;;;;5015569;28;20250;-82
2020/12/28 03:40:28;;;;;;;1.00;0.80;;;9.10;99.90;;;;;;5015833;28;20197;-82
2020/12/28 03:42:55;;;;;;;1.20;1.10;;;9.10;99.90;;;;;;5015691;28;20204;-82
2020/12/28 03:45:21;;;;;;;1.15;0.95;;;9.10;99.90;;;;;;5015725;28;20204;-82
2020/12/28 03:47:48;;;;;;;1.58;1.08;;;8.80;99.90;;;;;;5015763;28;20574;-82
2020/12/28 03:50:14;;;;;;;1.00;0.80;;;8.90;99.90;;;;;;5015483;28;20558;-82
2020/12/28 03:52:40;;;;;;;1.10;0.90;;;9.00;99.90;;;;;;5015573;28;20566;-82
2020/12/28 03:55:07;;;;;;;1.10;1.00;;;9.00;99.90;;;;;;5015325;28;20224;-82
2020/12/28 03:57:34;;;;;;;1.55;0.80;;;9.00;99.90;;;;;;5015151;28;20255;-82
2020/12/28 04:00:00;;;;;;;1.48;1.17;;;8.90;99.90;;;;;;5015260;28;20262;-82
2020/12/28 04:02:27;;;;;;;1.23;1.13;;;9.00;99.90;;;;;;5015342;28;20196;-82
2020/12/28 04:04:54;;;;;;;1.30;1.10;;;9.10;99.90;;;;;;5014762;28;20283;-82
2020/12/28 04:07:20;;;;;;;1.10;0.90;;;9.00;99.90;;;;;;5015195;28;20558;-82
2020/12/28 04:09:46;;;;;;;1.10;0.90;;;9.10;99.90;;;;;;5014996;28;20651;-82
2020/12/28 04:12:13;;;;;;;1.30;1.10;;;9.20;99.90;;;;;;5015117;28;20193;-82
2020/12/28 04:14:39;;;;;;;1.00;0.80;;;9.20;99.90;;;;;;5014984;28;20201;-83
2020/12/28 04:17:05;;;;;;;1.10;1.00;;;9.20;99.90;;;;;;5014941;28;20224;-82
2020/12/28 04:19:32;;;;;;;1.00;0.85;;;9.20;99.90;;;;;;5014794;28;20193;-82
2020/12/28 04:21:59;;;;;;;1.00;0.80;;;9.10;99.90;;;;;;5015079;28;20203;-82
2020/12/28 04:24:25;;;;;;;1.55;1.00;;;9.10;99.90;;;;;;5014812;28;20196;-82
2020/12/28 04:26:51;;;;;;;1.35;1.00;;;9.00;99.90;;;;;;5014644;28;20216;-82
2020/12/28 04:29:17;;;;;;;1.00;0.90;;;9.10;99.90;;;;;;5014560;28;20211;-82
2020/12/28 04:31:44;;;;;;;2.15;1.00;;;9.00;99.90;;;;;;5014675;28;20201;-82
2020/12/28 04:34:10;;;;;;;1.00;0.80;;;9.00;99.90;;;;;;5014486;28;20227;-82
2020/12/28 04:36:37;;;;;;;1.40;1.10;;;9.00;99.90;;;;;;5014732;28;20196;-82
2020/12/28 04:39:04;;;;;;;1.17;1.08;;;9.00;99.90;;;;;;5014482;28;20648;-82
2020/12/28 04:41:31;;;;;;;1.50;1.08;;;9.00;99.90;;;;;;5014579;28;20203;-82
2020/12/28 04:43:57;;;;;;;1.52;1.33;;;9.10;99.90;;;;;;5014574;28;20202;-81
2020/12/28 04:46:27;;;;;;;3.35;1.40;;;9.10;99.90;;;;;;5014361;28;20204;-82
2020/12/28 04:48:55;;;;;;;2.13;1.55;;;9.10;99.90;;;;;;5014297;28;20220;-82
2020/12/28 04:51:22;;;;;;;2.47;1.17;;;9.10;99.90;;;;;;5014338;28;20535;-82
2020/12/28 04:53:50;;;;;;;1.40;1.30;;;9.20;99.90;;;;;;5014369;28;20212;-82
2020/12/28 04:56:18;;;;;;;1.10;1.00;;;9.20;99.90;;;;;;5014394;28;20224;-82
2020/12/28 04:58:44;;;;;;;1.98;1.30;;;9.10;99.90;;;;;;5014156;28;20580;-82
2020/12/28 05:01:10;;;;;;;1.30;1.20;;;9.00;99.90;;;;;;5014151;28;20193;-82
2020/12/28 05:03:36;;;;;;;1.10;1.00;;;8.90;99.90;;;;;;5014322;28;20196;-82
2020/12/28 05:06:02;;;;;;;2.10;1.13;;;8.90;99.90;;;;;;5013513;28;20197;-82
2020/12/28 05:08:29;;;;;;;2.40;1.20;;;8.90;99.90;;;;;;5014189;28;20208;-82
2020/12/28 05:11:05;;;;;;;1.50;1.40;;;8.90;99.90;;;;;;5013822;28;20200;-82
2020/12/28 05:13:32;;;;;;;1.80;1.40;;;9.00;99.90;;;;;;5014054;28;20207;-83
2020/12/28 05:15:59;;;;;;;1.50;1.27;;;8.90;99.90;;;;;;5013357;28;20561;-82
2020/12/28 05:18:25;;;;;;;1.75;1.60;;;8.80;99.90;;;;;;5013698;28;20220;-82
2020/12/28 05:20:52;;;;;;;1.63;1.52;;;8.80;99.90;;;;;;5013796;28;20651;-82
2020/12/28 05:23:19;;;;;;;1.60;1.50;;;8.80;99.90;;;;;;5013968;28;20203;-82
2020/12/28 05:25:46;;;;;;;1.55;1.45;;;8.90;99.90;;;;;;5013756;28;20220;-82
2020/12/28 05:28:15;;;;;;;2.15;2.05;;;9.00;99.90;;;;;;5013748;28;20258;-82
2020/12/28 05:30:45;;;;;;;1.73;1.63;;;9.00;99.90;;;;;;5013694;28;20204;-82
2020/12/28 05:33:12;;;;;;;3.90;1.70;;;9.10;99.90;;;;;;5013133;28;20228;-82
2020/12/28 05:35:39;;;;;;;1.65;1.55;;;9.20;99.90;;;;;;5013690;28;20290;-82
2020/12/28 05:38:06;;;;;;;1.50;1.40;;;9.20;99.90;;;;;;5013760;28;20227;-81
2020/12/28 05:40:33;;;;;;;1.75;1.65;;;9.20;99.90;;;;;;5013603;28;20207;-83
2020/12/28 05:43:00;;;;;;;1.63;1.52;;;9.30;99.90;;;;;;5013559;28;20200;-82
2020/12/28 05:45:26;;;;;;;2.05;1.40;;;9.30;99.90;;;;;;5013406;28;20207;-82
2020/12/28 05:47:55;;;;;;;1.75;1.65;;;9.30;99.90;;;;;;5013664;28;20203;-82
2020/12/28 05:50:23;;;;;;;2.50;1.73;;;9.30;99.90;;;;;;5013679;28;20196;-82
2020/12/28 05:52:53;;;;;;;2.47;1.80;;;9.30;99.90;;;;;;5013431;28;20227;-82
2020/12/28 05:55:22;;;;;;;1.50;1.40;;;9.30;99.90;;;;;;5013563;28;20224;-82
2020/12/28 05:57:48;;;;;;;2.78;1.60;;;9.30;99.90;;;;;;5013749;28;20224;-82
2020/12/28 06:00:15;;;;;;;1.88;1.77;;;9.40;99.90;;;;;;5013326;28;20200;-82
2020/12/28 06:02:41;;;;;;;1.60;1.50;;;9.40;99.90;;;;;;5013200;28;20287;-82
2020/12/28 06:05:13;;;;;;;1.80;1.70;;;9.50;99.90;;;;;;5013093;28;20545;-82
2020/12/28 06:07:40;;;;;;;1.73;1.63;;;9.50;99.90;;;;;;5013353;28;20254;-82
2020/12/28 06:10:07;;;;;;;2.47;1.90;;;9.40;99.90;;;;;;5013312;28;20211;-82
2020/12/28 06:12:34;;;;;;;1.67;1.58;;;9.50;99.90;;;;;;5013381;28;20228;-82
2020/12/28 06:15:01;;;;;;;1.83;1.65;;;9.50;99.90;;;;;;5013180;28;20562;-82
2020/12/28 06:17:34;;;;;;;2.38;1.65;;;9.50;99.90;;;;;;5013298;28;20227;-82
2020/12/28 06:20:02;;;;;;;2.30;2.10;;;9.50;99.90;;;;;;5013009;28;20673;-83
2020/12/28 06:22:31;;;;;;;1.98;1.70;;;9.50;99.90;;;;;;5012792;28;20254;-82
2020/12/28 06:24:59;;;;;;;2.33;2.13;;;9.50;99.90;;;;;;5013112;28;20231;-82
2020/12/28 06:27:28;;;;;;;2.33;1.63;;;9.40;99.90;;;;;;5014514;28;20559;-82
2020/12/28 06:29:54;;;;;;;2.38;1.85;;;9.40;99.90;;;;;;5017029;28;20199;-82
2020/12/28 06:32:20;;;;;;;1.95;1.77;;;9.40;99.90;;;;;;5016696;28;20235;-81
2020/12/28 06:34:59;;;;;;;1.58;1.48;;;9.30;99.90;;;;;;5016833;28;20252;-82
2020/12/28 06:37:26;;;;;;;1.60;1.50;;;9.30;99.90;;;;;;5016800;28;20226;-82
2020/12/28 06:39:57;;;;;;;1.60;1.50;;;9.30;99.90;;;;;;5016921;28;20200;-82
2020/12/28 06:42:23;;;;;;;1.58;1.48;;;9.40;99.90;;;;;;5016751;28;20223;-82
2020/12/28 06:44:49;;;;;;;4.65;1.70;;;9.50;99.90;;;;;;5016854;28;20566;-84
2020/12/28 06:47:17;;;;;;;1.98;1.77;;;9.40;99.90;;;;;;5016865;28;20643;-82
2020/12/28 06:49:44;;;;;;;1.80;1.70;;;9.50;99.90;;;;;;5016668;28;20200;-82
2020/12/28 06:52:10;;;;;;;1.77;1.50;;;9.40;99.90;;;;;;5016571;28;20254;-82
2020/12/28 06:54:37;;;;;;;1.52;1.42;;;9.40;99.90;;;;;;5016592;28;20192;-83
2020/12/28 06:57:05;;;;;;;2.47;1.90;;;9.40;99.90;;;;;;5016415;28;20571;-85
2020/12/28 06:59:32;;;;;;;1.60;1.50;;;9.50;99.90;;;;;;5016400;28;20558;-82
2020/12/28 07:01:59;;;;;;;2.38;1.80;;;9.50;99.90;;;;;;5016590;28;20200;-82
2020/12/28 07:04:26;;;;;;;1.80;1.55;;;9.50;99.90;;;;;;5016447;28;20559;-82
2020/12/28 07:06:59;;;;;;;1.92;1.77;;;9.50;99.90;;;;;;5016620;28;20192;-82
2020/12/28 07:09:25;;;;;;;2.03;1.90;;;9.50;99.90;;;;;;5016267;28;20648;-81
2020/12/28 07:11:52;;;;;;;2.00;1.80;;;9.50;99.90;;;;;;5016531;28;20196;-82
2020/12/28 07:14:22;;;;;;;3.00;1.90;;;9.60;99.90;;;;;;5016198;28;20262;-81
2020/12/28 07:16:55;;;;;;;1.90;1.80;;;9.50;99.90;;;;;;5015984;28;20196;-82
2020/12/28 07:19:21;;;;;;;1.80;1.70;;;9.70;99.90;;;;;;5016108;28;20251;-82
2020/12/28 07:21:47;;;;;;;3.40;1.80;;;9.60;99.90;;;;;;5016076;28;20207;-82
2020/12/28 07:24:13;;;;;;;1.83;1.73;;;9.60;99.90;;;;;;5016043;28;20204;-82
2020/12/28 07:26:42;;;;;;;2.30;1.90;;;9.70;99.90;;;;;;5015955;28;20557;-82
2020/12/28 07:29:12;;;;;;;1.85;1.75;;;9.70;99.90;;;;;;5015843;28;20196;-82
2020/12/28 07:31:40;;;;;;;1.92;1.83;;;9.70;99.90;;;;;;5015930;28;20618;-82
2020/12/28 07:34:06;;;;;;;4.50;1.85;;;9.80;99.90;;;;;;5015712;28;20240;-83
2020/12/28 07:36:34;;;;;;;1.92;1.70;;;9.70;99.90;;;;;;5015960;28;20196;-82
2020/12/28 07:39:01;;;;;;;7.40;2.25;;;9.80;99.90;;;;;;5014892;28;20590;-82
2020/12/28 07:41:28;;;;;;;2.60;1.88;;;9.80;99.90;;;;;;5015323;28;20295;-82
2020/12/28 07:43:56;;;;;;;2.05;1.90;;;9.80;99.90;;;;;;5014669;28;20651;-82
2020/12/28 07:46:35;;;;;;;2.47;1.70;;;9.80;99.90;;;;;;5015089;28;20192;-82
2020/12/28 07:49:08;;;;;;;3.38;1.77;;;9.90;99.90;;;;;;5015542;28;20246;-83
2020/12/28 07:51:38;;;;;;;2.15;1.45;;;9.80;99.90;;;;;;5015363;28;20200;-83
2020/12/28 07:54:12;;;;;;;2.30;2.10;;;9.90;99.90;;;;;;5015565;28;20532;-82
2020/12/28 07:56:45;;;;;;;1.63;1.48;;;9.80;99.90;;;;;;5015283;28;20286;-82
2020/12/28 07:59:32;;;;;;;1.70;1.60;;;9.80;99.90;;;;;;5015236;28;20207;-82
2020/12/28 08:02:03;;;;;;;1.88;1.20;;;9.80;99.90;;;;;;5015202;28;20223;-83
2020/12/28 08:04:31;;;;;;;2.40;1.60;;;9.80;99.90;;;;;;5015138;28;20204;-83
2020/12/28 08:06:58;;;;;;;2.42;1.60;;;9.80;99.90;;;;;;5015034;28;20200;-82
2020/12/28 08:09:25;;;;;;;1.38;1.17;;;9.80;99.90;;;;;;5015087;28;20196;-83
2020/12/28 08:11:57;;;;;;;2.00;1.77;;;9.80;99.90;;;;;;5015147;28;20299;-83
2020/12/28 08:14:24;;;;;;;1.45;1.30;;;9.80;99.90;;;;;;5015198;28;20243;-82
2020/12/28 08:16:50;;;;;;;1.30;1.20;;;9.80;99.90;;;;;;5014760;28;20197;-84
2020/12/28 08:19:24;;;;;;;1.80;1.60;;;9.70;99.90;;;;;;5015003;28;20211;-82
2020/12/28 08:21:52;;;;;;;1.73;1.58;;;9.80;99.90;;;;;;5014734;28;20196;-83
2020/12/28 08:24:19;;;;;;;1.60;1.50;;;9.80;99.90;;;;;;5014827;28;20203;-82
2020/12/28 08:26:46;;;;;;;3.40;1.42;;;9.90;99.90;;;;;;5014969;28;20275;-82
2020/12/28 08:29:13;;;;;;;2.30;1.20;;;9.90;99.90;;;;;;5014833;28;20577;-82
2020/12/28 08:31:39;;;;;;;1.70;1.58;;;9.90;99.90;;;;;;5014713;28;20523;-82
2020/12/28 08:34:09;;;;;;;1.38;1.23;;;9.90;99.90;;;;;;5014615;28;20565;-82
2020/12/28 08:36:37;;;;;;;1.33;1.20;;;9.80;99.90;;;;;;5014710;28;20200;-83
2020/12/28 08:39:15;;;;;;;1.50;1.10;;;9.70;99.90;;;;;;5013757;28;20236;-82
2020/12/28 08:41:50;;;;;;;1.98;1.23;;;9.70;99.90;;;;;;5014749;28;20219;-81
2020/12/28 08:44:27;;;;;;;1.60;1.00;;;9.80;99.90;;;;;;5014634;28;20219;-81
2020/12/28 08:46:53;;;;;;;1.50;1.20;;;9.80;99.90;;;;;;5014372;28;20196;-82
2020/12/28 08:49:26;;;;;;;1.35;1.00;;;9.70;99.90;;;;;;5014111;28;20547;-82
2020/12/28 08:51:53;;;;;;;1.83;1.10;;;9.60;99.90;;;;;;5013713;28;20200;-82
2020/12/28 08:54:29;;;;;;;1.55;1.10;;;9.60;99.90;;;;;;5014457;28;20207;-82
2020/12/28 08:56:55;;;;;;;2.85;1.10;;;9.50;99.90;;;;;;5014234;28;20203;-82
2020/12/28 08:59:21;;;;;;;1.35;1.10;;;9.40;99.90;;;;;;5013955;28;20732;-81
2020/12/28 09:01:52;;;;;;;2.05;1.30;;;9.40;99.90;;;;;;5014277;28;20204;-84
2020/12/28 09:04:18;;;;;;;1.15;1.02;;;9.40;99.90;;;;;;5014240;28;20204;-83
2020/12/28 09:06:44;;;;;;;1.20;1.10;;;9.40;99.90;;;;;;5013942;28;20207;-82
2020/12/28 09:09:10;;;;;;;2.95;1.33;;;9.40;99.90;;;;;;5014180;28;20196;-82
2020/12/28 09:11:38;;;;;;;1.35;1.10;;;9.40;99.90;;;;;;5014000;28;20197;-83
2020/12/28 09:14:04;;;;;;;1.88;1.38;;;9.30;99.90;;;;;;5013630;28;20204;-82
2020/12/28 09:16:30;;;;;;;1.42;1.15;;;9.30;99.90;;;;;;5014017;28;20192;-81
2020/12/28 09:18:56;;;;;;;1.70;1.17;;;9.40;99.90;;;;;;5012625;28;20235;-81
2020/12/28 09:21:23;;;;;;;1.30;1.00;;;9.30;99.90;;;;;;5012768;28;20231;-82
2020/12/28 09:23:49;;;;;;;3.15;1.30;;;9.40;99.90;;;;;;5012935;28;20196;-82
2020/12/28 09:26:16;;;;;;;1.20;1.00;;;9.40;99.90;;;;;;5012154;28;20212;-81
2020/12/28 09:28:44;;;;;;;1.10;0.90;;;9.40;99.90;;;;;;5011560;28;20197;-81
2020/12/28 09:31:11;;;;;;;1.70;1.20;;;9.50;99.90;;;;;;5012311;28;20196;-81
2020/12/28 09:33:37;;;;;;;1.40;1.20;;;9.50;99.90;;;;;;5012998;28;20228;-81
2020/12/28 09:36:03;;;;;;;1.20;0.80;;;9.60;99.90;;;;;;5013471;28;20554;-81
2020/12/28 09:38:30;;;;;;;1.67;1.00;;;9.60;99.90;;;;;;5012662;28;20695;-81
2020/12/28 09:40:56;;;;;;;1.30;0.88;;;9.60;99.90;;;;;;5013648;28;20192;-81
2020/12/28 09:43:22;;;;;;;3.30;1.75;;;9.50;99.90;;;;;;5013816;28;20204;-81
2020/12/28 09:45:49;;;;;;;1.60;1.30;;;9.60;99.90;;;;;;5013991;28;20203;-82
2020/12/28 09:48:15;;;;;;;2.45;1.38;;;9.60;99.90;;;;;;5013676;28;20223;-81
2020/12/28 09:50:42;;;;;;;2.08;1.10;;;9.60;99.90;;;;;;5013546;28;20207;-81
2020/12/28 09:53:08;;;;;;;1.10;0.90;;;9.60;99.90;;;;;;5013436;28;20193;-81
2020/12/28 09:55:34;;;;;;;3.05;0.85;;;9.60;99.90;;;;;;5013535;28;20224;-80
2020/12/28 09:58:00;;;;;;;1.17;0.98;;;9.70;99.90;;;;;;5013478;28;20227;-82
2020/12/28 10:00:26;;;;;;;1.10;1.00;;;9.70;99.90;;;;;;5013563;28;20201;-81
2020/12/28 10:02:53;;;;;;;1.25;1.02;;;9.50;99.90;;;;;;5015230;28;20727;-82
2020/12/28 10:05:20;;;;;;;8.00;1.42;;;9.60;99.90;;;;;;5017551;28;20199;-82
2020/12/28 10:07:46;;;;;;;1.92;1.10;;;9.60;99.90;;;;;;5017486;28;20203;-82
2020/12/28 10:10:12;;;;;;;3.47;1.00;;;9.60;99.90;;;;;;5017557;28;20207;-82
2020/12/28 10:12:38;;;;;;;1.35;0.80;;;9.60;99.90;;;;;;5017498;28;20200;-82
2020/12/28 10:15:06;;;;;;;4.90;1.13;;;9.60;99.90;;;;;;5017213;28;20286;-83
2020/12/28 10:17:32;;;;;;;1.50;1.00;;;9.70;99.90;;;;;;5017167;28;20216;-82
2020/12/28 10:19:59;;;;;;;1.15;1.00;;;9.80;99.90;;;;;;5017178;28;20231;-82
2020/12/28 10:22:26;;;;;;;1.88;0.80;;;9.80;99.90;;;;;;5017288;28;20203;-82
2020/12/28 10:24:53;;;;;;;1.90;0.95;;;9.90;99.90;;;;;;5017084;28;20216;-82
2020/12/28 10:27:19;;;;;;;1.33;0.90;;;9.90;99.90;;;;;;5016996;28;20197;-82
2020/12/28 10:29:45;;;;;;;1.10;0.80;;;10.00;99.90;;;;;;5017146;28;20197;-82
2020/12/28 10:32:12;;;;;;;1.65;1.10;;;9.90;99.90;;;;;;5016782;28;20232;-82
2020/12/28 10:34:38;;;;;;;1.30;1.00;;;9.90;99.90;;;;;;5016959;28;20201;-83
2020/12/28 10:37:05;;;;;;;2.97;0.80;;;10.10;99.90;;;;;;5016922;28;20532;-83
2020/12/28 10:39:31;;;;;;;1.88;1.10;;;10.10;99.90;;;;;;5017010;28;20575;-82
2020/12/28 10:42:03;;;;;;;1.60;0.90;;;10.10;99.90;;;;;;5016977;28;20200;-82
2020/12/28 10:44:29;;;;;;;1.20;0.80;;;10.10;99.90;;;;;;5016975;28;20196;-82
2020/12/28 10:46:55;;;;;;;1.00;0.70;;;10.10;99.90;;;;;;5017007;28;20196;-82
2020/12/28 10:49:21;;;;;;;1.65;0.80;;;10.00;99.90;;;;;;5016653;28;20243;-82
2020/12/28 10:51:47;;;;;;;2.03;0.90;;;10.00;99.90;;;;;;5017021;28;20196;-82
2020/12/28 10:54:15;;;;;;;1.10;0.70;;;10.00;99.90;;;;;;5016693;28;20192;-81
2020/12/28 10:56:41;;;;;;;2.17;1.20;;;10.10;99.90;;;;;;5016522;28;20196;-83
2020/12/28 10:59:07;;;;;;;1.10;0.90;;;10.10;99.90;;;;;;5016595;28;20220;-82
2020/12/28 11:01:34;;;;;;;1.50;1.25;;;10.20;99.90;;;;;;5016366;28;20207;-81
2020/12/28 11:04:00;;;;;;;1.42;0.98;;;10.20;99.90;;;;;;5016439;28;20196;-82
2020/12/28 11:06:26;;;;;;;2.22;1.35;;;9.90;99.90;;;;;;5016161;28;20207;-82
2020/12/28 11:08:53;;;;;;;1.30;1.10;;;9.90;99.90;;;;;;5016413;28;20199;-82
2020/12/28 11:11:21;;;;;;;1.80;1.70;;;9.80;99.90;;;;;;5016442;28;20193;-82
2020/12/28 11:13:48;;;;;;;2.00;0.95;;;9.80;99.90;;;;;;5015156;28;20192;-82
2020/12/28 11:16:15;;;;;;;1.15;0.90;;;9.80;99.90;;;;;;5016354;28;20192;-84
2020/12/28 11:18:41;;;;;;;2.20;1.15;;;9.90;99.90;;;;;;5016099;28;20235;-83
2020/12/28 11:21:07;;;;;;;1.10;1.00;;;9.90;99.90;;;;;;5015717;28;20577;-82
2020/12/28 11:26:18;;;;;;;2.40;1.30;;;9.90;99.90;;;;;;5014579;28;20211;-82
2020/12/28 11:28:45;;;;;;;1.60;1.17;;;9.90;99.90;;;;;;5015845;28;20262;-82
2020/12/28 11:31:14;;;;;;;1.13;0.85;;;10.00;99.90;;;;;;5015640;28;20200;-82
2020/12/28 11:33:41;;;;;;;2.05;0.90;;;10.10;99.90;;;;;;5015688;28;20236;-82
2020/12/28 11:36:07;;;;;;;2.40;1.00;;;10.00;99.90;;;;;;5015571;28;20203;-82
2020/12/28 11:38:34;;;;;;;1.10;0.85;;;10.10;99.90;;;;;;5015808;28;20278;-82
2020/12/28 11:41:00;;;;;;;2.75;1.00;;;10.00;99.90;;;;;;5015718;28;20201;-82
2020/12/28 11:43:27;;;;;;;6.13;1.20;;;9.90;99.90;;;;;;5015716;28;20203;-82
2020/12/28 11:45:55;;;;;;;1.10;0.82;;;10.00;99.90;;;;;;5015602;28;20647;-81
2020/12/28 11:48:21;;;;;;;1.85;0.93;;;10.10;99.90;;;;;;5015371;28;20203;-81
2020/12/28 11:50:48;;;;;;;1.20;0.82;;;10.10;99.90;;;;;;5015527;28;20196;-81
2020/12/28 11:53:14;;;;;;;1.40;0.90;;;10.10;99.90;;;;;;5015504;28;20192;-81
2020/12/28 11:58:25;;;;;;;1.20;1.00;;;10.20;99.90;;;;;;5015343;28;20313;-81
2020/12/28 12:00:51;;;;;;;1.63;1.05;;;10.20;99.90;;;;;;5015041;28;20197;-77
2020/12/28 12:03:18;;;;;;;1.30;1.10;;;10.10;99.90;;;;;;5015288;28;20201;-77
2020/12/28 12:05:44;;;;;;;1.45;1.05;;;10.10;99.90;;;;;;5015077;28;20204;-77
2020/12/28 12:08:10;;;;;;;1.13;1.02;;;10.20;99.90;;;;;;5015832;28;20188;-76
2020/12/28 12:10:37;;;;;;;1.33;0.93;;;10.30;99.90;;;;;;5033485;28;20196;-78
2020/12/28 12:13:03;;;;;;;2.00;1.10;;;10.30;99.90;;;;;;5034138;28;20242;-77
2020/12/28 12:15:29;;;;;;;1.20;0.90;;;10.50;99.90;;;;;;5034867;28;20200;-77
2020/12/28 12:17:55;;;;;;;2.47;1.00;;;10.50;99.90;;;;;;5034559;28;20752;-77
2020/12/28 12:20:22;;;;;;;4.68;1.80;;;10.50;99.90;;;;;;5034796;28;20250;-77
2020/12/28 12:22:48;;;;;;;1.60;1.00;;;10.50;99.90;;;;;;5034718;28;20200;-77
2020/12/28 12:25:15;;;;;;;1.20;1.00;;;10.60;99.90;;;;;;5034324;28;20223;-77
2020/12/28 12:27:41;;;;;;;2.95;1.05;;;10.60;99.90;;;;;;5034541;28;20229;-77
2020/12/28 12:30:07;;;;;;;1.48;0.93;;;10.60;99.90;;;;;;5034484;28;20542;-77
2020/12/28 12:32:33;;;;;;;1.40;0.90;;;10.60;99.90;;;;;;5034457;28;20227;-77
2020/12/28 12:35:00;;;;;;;4.70;1.85;;;10.60;99.90;;;;;;5034422;28;20308;-77
2020/12/28 12:37:27;;;;;;;1.90;1.00;;;10.70;99.90;;;;;;5030579;28;20196;-77
2020/12/28 12:39:53;;;;;;;1.10;0.77;;;10.70;99.90;;;;;;5019302;28;20600;-77
2020/12/28 12:42:19;;;;;;;3.03;1.08;;;10.70;99.90;;;;;;5020759;28;20239;-77
2020/12/28 12:44:45;;;;;;;1.65;0.80;;;10.80;99.90;;;;;;5014058;28;20219;-77
2020/12/28 12:47:12;;;;;;;2.22;1.38;;;10.90;99.90;;;;;;5014441;28;20539;-82
2020/12/28 12:49:38;;;;;;;3.15;1.00;;;11.00;99.90;;;;;;5022351;28;20184;-81
2020/12/28 12:52:11;;;;;;;3.70;1.10;;;11.00;99.90;;;;;;5024153;28;20192;-81
2020/12/28 12:54:38;;;;;;;1.20;0.80;;;10.90;99.90;;;;;;5026549;28;20211;-81
2020/12/28 12:57:05;;;;;;;3.05;1.20;;;10.80;99.90;;;;;;5021404;28;20714;-81
2020/12/28 12:59:31;;;;;;;3.28;1.10;;;10.90;99.90;;;;;;5033242;28;20281;-81